メインページ
METAR-TAF:

METAR-TAF

空港 :

Williams Lake, ブリティッシュコロンビア州, カナダ

緯度: 52-11N, 経度: 122-03W, 海抜: 940m

現時点の気象観測

当レポートは1時間13分前の20:00(UTC)に作成
東/南東の風 13kt
気温 0°C
湿度 69%
気圧 1010 hPa
視程: 24.1km
高度10000ftの雲はほとんどない
高度23000ftの雲はほとんどない

METAR: CYWL 152000Z 11013KT 15SM FEW100 FEW230 M00/M05 A2983 RMK AC1CI2 AC TR SLP138

時間: 13:13 (21:13 UTC)

予報

当レポートは2時間35分前の18:38(UTC)に作成
予報は15日の 19時(UTC)から 16日の 07時(UTC)まで有効
東/南東の風 8kt
視程: 10km
高度11000ftの雲は散在している
高度22000ftの千切れ雲あり
15日の 22時(UTC)から 15日の 24時(UTC)まで徐々に
東/南東の風 15kt、最大25ktの突風を伴う
16日の 0500時(UTC)から
東/南東の風 20kt、最大30ktの突風を伴う
視程: 10km
高度8000ftの千切れ雲あり
弱いにわか雪

TAF: CYWL 151838Z 1519/1607 12008KT P6SM SCT110 BKN220 BECMG 1522/1524 11015G25KT FM160500 11020G30KT P6SM -SHSN BKN080 RMK NXT FCST BY 160100Z

4,000以上の空港の気象観測と天気予報(METAR報とTAF報)

利用可能な観測所は地図上に黄色い丸と赤い丸で示す。

丸の上にカーソルを重ねると観測所名を参照できる。

次にクリックすると気象観測と天気予報を参照できる。

マップの切り替え:黒色「×」印の緑ボタンをクリックして拡大、「-」印の緑ボタンをクリックして縮小、緑色の三角印をクリックして隣りの地図に切り替え


METAR-TAF: